createdAt,value
2022-11-13T07:06:39.166Z,9.38
2022-11-13T07:09:26.416Z,6.50
2022-11-13T07:12:12.521Z,7.53
2022-11-13T07:14:58.386Z,9.38
2022-11-13T07:17:44.421Z,8.07
2022-11-13T07:20:31.081Z,8.00
2022-11-13T07:23:16.909Z,7.68
2022-11-13T07:26:04.191Z,6.95
2022-11-13T07:28:50.254Z,8.13
2022-11-13T07:31:35.894Z,6.93
2022-11-13T07:34:21.751Z,10.98
2022-11-13T07:37:07.931Z,7.13
2022-11-13T07:39:53.557Z,6.00
2022-11-13T08:10:21.325Z,6.10
2022-11-13T08:13:09.211Z,18.90
2022-11-13T08:15:55.111Z,3.60
2022-11-13T08:18:41.021Z,9.65
2022-11-13T08:21:26.924Z,7.38
2022-11-13T08:24:13.065Z,4.55
2022-11-13T08:26:58.661Z,6.03
2022-11-13T08:29:44.635Z,4.60
2022-11-13T08:32:30.782Z,4.47
2022-11-13T08:35:19.568Z,7.13
2022-11-13T08:38:08.003Z,3.40
2022-11-13T08:40:57.815Z,4.38
2022-11-13T08:43:43.508Z,5.47
2022-11-13T08:46:29.334Z,6.10
2022-11-13T08:49:15.235Z,6.00
2022-11-13T08:52:01.477Z,8.98
2022-11-13T08:54:47.625Z,7.57
2022-11-13T08:57:33.458Z,8.45
2022-11-13T09:00:20.616Z,8.98
2022-11-13T09:03:06.721Z,6.72
2022-11-13T09:05:52.436Z,5.78
2022-11-13T09:08:38.266Z,8.43
2022-11-13T09:11:27.656Z,7.22
2022-11-13T09:14:13.762Z,6.25
2022-11-13T09:16:59.781Z,9.68
2022-11-13T09:19:45.798Z,10.55
2022-11-13T09:22:31.870Z,8.18
2022-11-13T09:25:17.668Z,7.50
2022-11-13T09:28:04.531Z,7.13
2022-11-13T09:30:50.596Z,6.50
2022-11-13T09:33:36.515Z,7.57
2022-11-13T09:36:22.334Z,9.48
2022-11-13T09:39:08.437Z,6.07
2022-11-13T09:42:20.180Z,5.70
2022-11-13T09:45:12.013Z,7.93
2022-11-13T09:48:09.468Z,9.02
2022-11-13T09:50:55.994Z,6.07
2022-11-13T09:53:42.125Z,8.95
2022-11-13T09:56:28.128Z,6.03
2022-11-13T09:59:26.537Z,7.35
2022-11-13T10:02:40.438Z,6.47
2022-11-13T10:05:50.223Z,8.88
2022-11-13T10:08:57.103Z,7.93
2022-11-13T10:11:50.635Z,8.05
2022-11-13T10:14:45.988Z,7.03
2022-11-13T10:17:56.404Z,8.68
2022-11-13T10:20:49.294Z,6.43
2022-11-13T10:23:38.260Z,7.10
2022-11-13T10:26:27.594Z,6.55
2022-11-13T10:29:16.272Z,6.22
2022-11-13T10:32:26.811Z,6.85
2022-11-13T10:35:12.791Z,7.55
2022-11-13T10:38:08.679Z,7.65
2022-11-13T10:41:12.372Z,4.90
2022-11-13T10:44:21.329Z,6.10
2022-11-13T10:47:42.317Z,6.20
2022-11-13T10:50:30.504Z,7.43
2022-11-13T10:53:20.541Z,6.60
2022-11-13T10:56:27.702Z,6.25
2022-11-13T10:59:16.874Z,6.35
2022-11-13T11:02:12.062Z,7.28
2022-11-13T11:05:07.183Z,7.47
2022-11-13T11:07:57.629Z,18.17
2022-11-13T11:11:14.041Z,14.30
2022-11-13T11:14:21.870Z,11.27
2022-11-13T11:17:12.767Z,12.47
2022-11-13T11:20:37.507Z,34.78
2022-11-13T11:23:56.285Z,11.97
2022-11-13T11:27:10.019Z,10.13
2022-11-13T11:30:39.412Z,9.18
2022-11-13T11:33:39.478Z,10.18
2022-11-13T11:36:33.115Z,10.32
2022-11-13T11:39:39.883Z,11.13
2022-11-13T11:42:38.984Z,11.73
2022-11-13T11:45:36.649Z,10.43
2022-11-13T11:48:31.099Z,12.73
2022-11-13T11:51:48.630Z,11.13
2022-11-13T11:54:53.217Z,16.80
2022-11-13T11:57:55.491Z,14.60
2022-11-13T12:00:49.746Z,11.63
2022-11-13T12:03:55.581Z,9.45
2022-11-13T12:07:00.439Z,12.45
2022-11-13T12:09:57.699Z,19.40
2022-11-13T12:12:58.673Z,14.73
2022-11-13T12:16:00.947Z,18.03
2022-11-13T18:25:11.380Z,23.52
2022-11-13T18:27:57.507Z,26.33
2022-11-13T18:30:44.908Z,26.15
2022-11-13T18:33:32.733Z,48.08
2022-11-13T18:36:19.258Z,22.13
2022-11-13T18:39:05.738Z,19.10
2022-11-13T18:41:51.921Z,23.65
2022-11-13T18:44:38.192Z,33.97
2022-11-13T18:47:24.356Z,32.58
2022-11-13T18:50:10.658Z,26.75
2022-11-13T18:52:57.065Z,30.10
2022-11-13T18:55:43.261Z,30.77
2022-11-13T18:58:29.532Z,28.25
2022-11-13T19:01:21.878Z,29.40
2022-11-13T19:04:22.822Z,39.45
2022-11-13T19:07:12.110Z,30.58
2022-11-13T19:09:58.553Z,35.38
2022-11-13T19:12:44.633Z,36.97
2022-11-13T19:15:31.147Z,30.55
2022-11-13T19:18:17.012Z,33.13
2022-11-13T19:21:14.922Z,40.17
2022-11-13T19:24:01.622Z,33.55
2022-11-13T19:26:47.624Z,39.80
2022-11-13T19:29:33.816Z,33.05
2022-11-13T19:32:19.884Z,34.10
2022-11-13T19:35:06.426Z,31.85
2022-11-13T19:37:56.650Z,34.03
2022-11-13T19:40:44.829Z,31.52
2022-11-13T19:43:37.775Z,32.60
2022-11-13T19:46:23.721Z,36.47
2022-11-13T19:49:10.026Z,35.72
2022-11-13T19:51:56.288Z,38.78
2022-11-13T19:54:42.809Z,36.28
2022-11-13T19:57:28.906Z,35.53
2022-11-13T20:00:15.600Z,31.98
2022-11-13T20:03:06.426Z,32.15
2022-11-13T20:08:40.360Z,37.30
2022-11-13T20:11:26.411Z,33.70
2022-11-13T20:14:12.660Z,30.83
2022-11-13T20:16:58.752Z,28.55
2022-11-13T20:19:44.936Z,27.80
2022-11-13T20:22:31.396Z,32.50
2022-11-13T20:25:18.296Z,31.00
2022-11-13T20:28:04.755Z,31.17
2022-11-13T20:30:51.517Z,34.40
2022-11-13T20:33:37.791Z,30.92
2022-11-13T20:36:24.361Z,31.05
2022-11-13T20:39:10.673Z,33.65
2022-11-13T20:41:56.613Z,28.45
2022-11-13T20:44:42.847Z,31.95
2022-11-13T20:47:29.190Z,26.35
2022-11-13T20:50:16.052Z,29.20
2022-11-13T20:53:02.360Z,31.23
2022-11-13T20:55:48.585Z,32.63
2022-11-13T20:58:35.999Z,34.40
2022-11-13T21:01:24.341Z,31.15
2022-11-13T21:04:10.698Z,28.70
2022-11-13T21:06:57.001Z,29.15
2022-11-13T21:09:48.710Z,29.65
2022-11-13T21:12:36.304Z,30.80
2022-11-13T21:15:22.298Z,31.83
2022-11-13T21:18:08.612Z,33.50
2022-11-13T21:20:54.823Z,28.95
2022-11-13T21:23:40.996Z,28.67
2022-11-13T21:26:28.373Z,33.88
2022-11-13T21:29:14.466Z,30.20
2022-11-13T21:32:00.818Z,33.10
2022-11-13T21:34:47.094Z,34.20
2022-11-13T21:37:34.009Z,41.17
2022-11-13T21:40:20.239Z,38.45
2022-11-13T21:43:06.324Z,44.30
2022-11-13T21:45:52.397Z,40.42
2022-11-13T21:48:39.217Z,41.10
2022-11-13T21:51:25.904Z,38.78
2022-11-13T21:54:11.973Z,31.33
2022-11-13T21:56:58.110Z,35.55
2022-11-13T21:59:44.222Z,33.92
2022-11-13T22:02:30.379Z,36.40
2022-11-13T22:05:16.462Z,31.27
2022-11-13T22:08:02.764Z,31.50
2022-11-13T22:10:49.028Z,30.80
2022-11-13T22:13:35.119Z,34.13
2022-11-13T22:16:21.698Z,32.90
2022-11-13T22:19:09.952Z,31.00
2022-11-13T22:21:55.868Z,30.10
2022-11-13T22:24:42.528Z,27.92
2022-11-13T22:27:28.572Z,29.92
2022-11-13T22:30:14.913Z,32.78
2022-11-13T22:33:01.018Z,30.02
2022-11-13T22:35:47.180Z,28.38
2022-11-13T22:38:37.082Z,24.13
2022-11-13T22:41:24.432Z,25.30
2022-11-13T22:44:12.604Z,25.35
2022-11-13T22:46:58.927Z,21.73
2022-11-13T22:49:45.330Z,25.25
2022-11-13T22:52:31.542Z,27.73
2022-11-13T22:55:17.715Z,28.13
2022-11-13T22:58:03.879Z,29.08
2022-11-13T23:00:50.086Z,28.42
2022-11-13T23:03:40.606Z,21.65
2022-11-13T23:06:28.252Z,24.95
2022-11-13T23:09:14.238Z,29.65
2022-11-13T23:12:00.490Z,26.75
2022-11-13T23:14:47.483Z,24.75
2022-11-13T23:17:33.430Z,28.27
2022-11-13T23:20:19.703Z,28.33
2022-11-13T23:23:06.052Z,22.95
2022-11-13T23:25:52.273Z,24.17
2022-11-13T23:28:38.604Z,23.45
2022-11-13T23:31:24.971Z,25.40
2022-11-13T23:34:11.059Z,21.05
2022-11-13T23:36:57.211Z,23.42
2022-11-13T23:39:43.391Z,21.10
2022-11-13T23:42:53.550Z,25.92
2022-11-13T23:45:35.489Z,20.75
2022-11-13T23:48:21.933Z,20.83
2022-11-13T23:51:08.100Z,24.15
2022-11-13T23:53:53.868Z,17.75
2022-11-13T23:56:40.293Z,21.02
2022-11-13T23:59:26.482Z,23.02
